sensor_id;sensor_type;location;lat;lon;timestamp;P1;durP1;ratioP1;P2;durP2;ratioP2
57605;SDS011;43430;48.204;11.556;2023-05-07T00:01:15;16.98;;;8.25;;
57605;SDS011;43430;48.204;11.556;2023-05-07T00:03:40;17.52;;;8.18;;
57605;SDS011;43430;48.204;11.556;2023-05-07T00:06:05;13.32;;;7.78;;
57605;SDS011;43430;48.204;11.556;2023-05-07T00:08:31;16.08;;;8.07;;
57605;SDS011;43430;48.204;11.556;2023-05-07T00:10:56;13.68;;;7.60;;
57605;SDS011;43430;48.204;11.556;2023-05-07T00:13:22;14.85;;;8.00;;
57605;SDS011;43430;48.204;11.556;2023-05-07T00:15:47;16.13;;;7.00;;
57605;SDS011;43430;48.204;11.556;2023-05-07T00:18:12;15.60;;;8.05;;
57605;SDS011;43430;48.204;11.556;2023-05-07T00:20:38;13.25;;;7.43;;
57605;SDS011;43430;48.204;11.556;2023-05-07T00:23:03;14.52;;;7.25;;
57605;SDS011;43430;48.204;11.556;2023-05-07T00:25:28;12.90;;;7.47;;
57605;SDS011;43430;48.204;11.556;2023-05-07T00:27:54;14.00;;;7.65;;
57605;SDS011;43430;48.204;11.556;2023-05-07T00:30:19;11.63;;;6.55;;
57605;SDS011;43430;48.204;11.556;2023-05-07T00:32:44;12.20;;;6.82;;
57605;SDS011;43430;48.204;11.556;2023-05-07T00:35:10;13.30;;;6.93;;
57605;SDS011;43430;48.204;11.556;2023-05-07T00:37:36;11.88;;;6.75;;
57605;SDS011;43430;48.204;11.556;2023-05-07T00:40:01;10.05;;;6.15;;
57605;SDS011;43430;48.204;11.556;2023-05-07T00:42:29;13.93;;;6.85;;
57605;SDS011;43430;48.204;11.556;2023-05-07T00:44:57;11.02;;;6.65;;
57605;SDS011;43430;48.204;11.556;2023-05-07T00:47:22;11.82;;;6.43;;
57605;SDS011;43430;48.204;11.556;2023-05-07T00:49:48;13.15;;;6.28;;
57605;SDS011;43430;48.204;11.556;2023-05-07T00:52:15;12.95;;;6.85;;
57605;SDS011;43430;48.204;11.556;2023-05-07T00:54:42;14.55;;;7.20;;
57605;SDS011;43430;48.204;11.556;2023-05-07T00:57:08;13.15;;;7.13;;
57605;SDS011;43430;48.204;11.556;2023-05-07T00:59:36;9.95;;;5.95;;
57605;SDS011;43430;48.204;11.556;2023-05-07T01:02:01;12.43;;;7.30;;
57605;SDS011;43430;48.204;11.556;2023-05-07T01:04:27;13.00;;;7.63;;
57605;SDS011;43430;48.204;11.556;2023-05-07T01:06:53;15.15;;;7.05;;
57605;SDS011;43430;48.204;11.556;2023-05-07T01:09:21;12.07;;;6.97;;
57605;SDS011;43430;48.204;11.556;2023-05-07T01:11:48;12.57;;;7.68;;
57605;SDS011;43430;48.204;11.556;2023-05-07T01:14:15;10.90;;;6.80;;
57605;SDS011;43430;48.204;11.556;2023-05-07T01:16:41;10.68;;;7.03;;
57605;SDS011;43430;48.204;11.556;2023-05-07T01:19:07;16.10;;;7.22;;
57605;SDS011;43430;48.204;11.556;2023-05-07T01:21:35;17.02;;;8.35;;
57605;SDS011;43430;48.204;11.556;2023-05-07T01:24:04;13.57;;;7.93;;
57605;SDS011;43430;48.204;11.556;2023-05-07T01:26:30;15.65;;;7.05;;
57605;SDS011;43430;48.204;11.556;2023-05-07T01:28:55;13.60;;;7.45;;
57605;SDS011;43430;48.204;11.556;2023-05-07T01:31:21;12.23;;;7.15;;
57605;SDS011;43430;48.204;11.556;2023-05-07T01:33:48;9.85;;;6.65;;
57605;SDS011;43430;48.204;11.556;2023-05-07T01:36:17;14.43;;;6.88;;
57605;SDS011;43430;48.204;11.556;2023-05-07T01:38:45;12.63;;;7.05;;
57605;SDS011;43430;48.204;11.556;2023-05-07T01:41:11;11.68;;;6.45;;
57605;SDS011;43430;48.204;11.556;2023-05-07T01:43:37;9.80;;;5.85;;
57605;SDS011;43430;48.204;11.556;2023-05-07T01:46:02;10.68;;;5.93;;
57605;SDS011;43430;48.204;11.556;2023-05-07T01:48:28;11.88;;;6.45;;
57605;SDS011;43430;48.204;11.556;2023-05-07T01:50:54;12.40;;;6.65;;
57605;SDS011;43430;48.204;11.556;2023-05-07T01:53:20;10.77;;;6.80;;
57605;SDS011;43430;48.204;11.556;2023-05-07T01:55:45;10.98;;;5.95;;
57605;SDS011;43430;48.204;11.556;2023-05-07T01:58:11;10.30;;;5.85;;
57605;SDS011;43430;48.204;11.556;2023-05-07T02:00:36;11.60;;;6.85;;
57605;SDS011;43430;48.204;11.556;2023-05-07T02:03:02;12.68;;;7.47;;
57605;SDS011;43430;48.204;11.556;2023-05-07T02:05:27;12.40;;;8.02;;
57605;SDS011;43430;48.204;11.556;2023-05-07T02:07:52;12.90;;;7.63;;
57605;SDS011;43430;48.204;11.556;2023-05-07T02:10:18;11.15;;;7.05;;
57605;SDS011;43430;48.204;11.556;2023-05-07T02:12:43;12.00;;;6.68;;
57605;SDS011;43430;48.204;11.556;2023-05-07T02:15:08;13.02;;;7.40;;
57605;SDS011;43430;48.204;11.556;2023-05-07T02:17:35;11.15;;;7.43;;
57605;SDS011;43430;48.204;11.556;2023-05-07T02:20:04;13.10;;;7.22;;
57605;SDS011;43430;48.204;11.556;2023-05-07T02:22:29;12.57;;;7.97;;
57605;SDS011;43430;48.204;11.556;2023-05-07T02:24:55;14.55;;;7.20;;
57605;SDS011;43430;48.204;11.556;2023-05-07T02:27:20;11.30;;;7.38;;
57605;SDS011;43430;48.204;11.556;2023-05-07T02:29:46;11.50;;;6.80;;
57605;SDS011;43430;48.204;11.556;2023-05-07T02:32:11;11.38;;;7.20;;
57605;SDS011;43430;48.204;11.556;2023-05-07T02:34:36;11.73;;;6.95;;
57605;SDS011;43430;48.204;11.556;2023-05-07T02:37:02;13.23;;;7.00;;
57605;SDS011;43430;48.204;11.556;2023-05-07T02:39:27;12.63;;;7.07;;
57605;SDS011;43430;48.204;11.556;2023-05-07T02:41:53;11.98;;;7.00;;
57605;SDS011;43430;48.204;11.556;2023-05-07T02:44:18;12.68;;;6.75;;
57605;SDS011;43430;48.204;11.556;2023-05-07T02:46:43;11.13;;;7.47;;
57605;SDS011;43430;48.204;11.556;2023-05-07T02:49:09;11.38;;;7.05;;
57605;SDS011;43430;48.204;11.556;2023-05-07T02:51:34;12.80;;;7.00;;
57605;SDS011;43430;48.204;11.556;2023-05-07T02:54:00;11.85;;;6.85;;
57605;SDS011;43430;48.204;11.556;2023-05-07T02:56:26;10.75;;;7.53;;
57605;SDS011;43430;48.204;11.556;2023-05-07T02:58:51;11.75;;;7.18;;
57605;SDS011;43430;48.204;11.556;2023-05-07T03:01:17;12.18;;;7.13;;
57605;SDS011;43430;48.204;11.556;2023-05-07T03:03:42;10.90;;;7.15;;
57605;SDS011;43430;48.204;11.556;2023-05-07T03:06:07;10.38;;;6.55;;
57605;SDS011;43430;48.204;11.556;2023-05-07T03:08:33;12.77;;;7.60;;
57605;SDS011;43430;48.204;11.556;2023-05-07T03:10:58;10.52;;;6.90;;
57605;SDS011;43430;48.204;11.556;2023-05-07T03:13:23;11.32;;;7.13;;
57605;SDS011;43430;48.204;11.556;2023-05-07T03:15:49;13.02;;;7.55;;
57605;SDS011;43430;48.204;11.556;2023-05-07T03:18:14;10.93;;;6.53;;
57605;SDS011;43430;48.204;11.556;2023-05-07T03:20:39;14.93;;;6.75;;
57605;SDS011;43430;48.204;11.556;2023-05-07T03:23:05;12.20;;;7.00;;
57605;SDS011;43430;48.204;11.556;2023-05-07T03:25:31;11.10;;;6.90;;
57605;SDS011;43430;48.204;11.556;2023-05-07T03:27:56;10.95;;;6.40;;
57605;SDS011;43430;48.204;11.556;2023-05-07T03:30:22;11.27;;;7.07;;
57605;SDS011;43430;48.204;11.556;2023-05-07T03:32:47;11.43;;;7.07;;
57605;SDS011;43430;48.204;11.556;2023-05-07T03:35:13;11.68;;;7.32;;
57605;SDS011;43430;48.204;11.556;2023-05-07T03:37:38;12.27;;;7.03;;
57605;SDS011;43430;48.204;11.556;2023-05-07T03:40:04;9.75;;;6.53;;
57605;SDS011;43430;48.204;11.556;2023-05-07T03:42:30;9.43;;;6.65;;
57605;SDS011;43430;48.204;11.556;2023-05-07T03:44:56;12.85;;;7.18;;
57605;SDS011;43430;48.204;11.556;2023-05-07T03:47:21;11.93;;;6.43;;
57605;SDS011;43430;48.204;11.556;2023-05-07T03:49:47;9.45;;;6.25;;
57605;SDS011;43430;48.204;11.556;2023-05-07T03:52:13;10.40;;;6.75;;
57605;SDS011;43430;48.204;11.556;2023-05-07T03:54:39;9.85;;;6.45;;
57605;SDS011;43430;48.204;11.556;2023-05-07T03:57:04;10.32;;;6.25;;
57605;SDS011;43430;48.204;11.556;2023-05-07T03:59:30;10.02;;;6.35;;
57605;SDS011;43430;48.204;11.556;2023-05-07T04:01:55;9.32;;;6.57;;
57605;SDS011;43430;48.204;11.556;2023-05-07T04:04:21;10.65;;;6.38;;
57605;SDS011;43430;48.204;11.556;2023-05-07T04:06:46;9.77;;;5.93;;
57605;SDS011;43430;48.204;11.556;2023-05-07T04:09:12;11.32;;;6.88;;
57605;SDS011;43430;48.204;11.556;2023-05-07T04:11:37;10.77;;;6.50;;
57605;SDS011;43430;48.204;11.556;2023-05-07T04:14:05;9.98;;;6.95;;
57605;SDS011;43430;48.204;11.556;2023-05-07T04:16:30;11.65;;;7.60;;
57605;SDS011;43430;48.204;11.556;2023-05-07T04:18:55;10.07;;;6.18;;
57605;SDS011;43430;48.204;11.556;2023-05-07T04:21:21;9.95;;;5.78;;
57605;SDS011;43430;48.204;11.556;2023-05-07T04:23:47;10.40;;;6.07;;
57605;SDS011;43430;48.204;11.556;2023-05-07T04:26:13;9.75;;;6.15;;
57605;SDS011;43430;48.204;11.556;2023-05-07T04:28:39;9.02;;;6.35;;
57605;SDS011;43430;48.204;11.556;2023-05-07T04:31:05;13.02;;;6.85;;
57605;SDS011;43430;48.204;11.556;2023-05-07T04:33:31;8.90;;;6.40;;
57605;SDS011;43430;48.204;11.556;2023-05-07T04:35:56;10.68;;;6.88;;
57605;SDS011;43430;48.204;11.556;2023-05-07T04:38:22;8.93;;;6.18;;
57605;SDS011;43430;48.204;11.556;2023-05-07T04:40:49;9.27;;;5.97;;
57605;SDS011;43430;48.204;11.556;2023-05-07T04:43:14;8.18;;;5.90;;
57605;SDS011;43430;48.204;11.556;2023-05-07T04:45:41;8.65;;;5.65;;
57605;SDS011;43430;48.204;11.556;2023-05-07T04:48:06;8.68;;;6.32;;
57605;SDS011;43430;48.204;11.556;2023-05-07T04:50:34;10.27;;;6.38;;
57605;SDS011;43430;48.204;11.556;2023-05-07T04:52:59;9.02;;;6.00;;
57605;SDS011;43430;48.204;11.556;2023-05-07T04:55:25;8.93;;;5.70;;
57605;SDS011;43430;48.204;11.556;2023-05-07T04:57:51;7.80;;;5.85;;
57605;SDS011;43430;48.204;11.556;2023-05-07T05:00:16;8.25;;;5.72;;
57605;SDS011;43430;48.204;11.556;2023-05-07T05:02:44;8.27;;;5.50;;
57605;SDS011;43430;48.204;11.556;2023-05-07T05:05:10;7.30;;;5.43;;
57605;SDS011;43430;48.204;11.556;2023-05-07T05:07:36;8.10;;;5.63;;
57605;SDS011;43430;48.204;11.556;2023-05-07T05:10:02;8.80;;;5.80;;
57605;SDS011;43430;48.204;11.556;2023-05-07T05:12:28;8.45;;;6.05;;
57605;SDS011;43430;48.204;11.556;2023-05-07T05:14:54;7.78;;;5.07;;
57605;SDS011;43430;48.204;11.556;2023-05-07T05:17:19;8.00;;;5.20;;
57605;SDS011;43430;48.204;11.556;2023-05-07T05:19:45;9.00;;;5.50;;
57605;SDS011;43430;48.204;11.556;2023-05-07T05:22:10;8.60;;;6.32;;
57605;SDS011;43430;48.204;11.556;2023-05-07T05:24:36;9.05;;;5.10;;
57605;SDS011;43430;48.204;11.556;2023-05-07T05:27:01;9.23;;;4.95;;
57605;SDS011;43430;48.204;11.556;2023-05-07T05:29:27;8.82;;;4.65;;
57605;SDS011;43430;48.204;11.556;2023-05-07T05:31:52;7.63;;;5.10;;
57605;SDS011;43430;48.204;11.556;2023-05-07T05:34:17;7.78;;;4.85;;
57605;SDS011;43430;48.204;11.556;2023-05-07T05:36:44;7.22;;;4.82;;
57605;SDS011;43430;48.204;11.556;2023-05-07T05:39:10;8.75;;;4.93;;
57605;SDS011;43430;48.204;11.556;2023-05-07T05:41:35;8.23;;;5.22;;
57605;SDS011;43430;48.204;11.556;2023-05-07T05:44:00;6.05;;;5.43;;
57605;SDS011;43430;48.204;11.556;2023-05-07T05:46:26;7.78;;;4.93;;
57605;SDS011;43430;48.204;11.556;2023-05-07T05:48:51;8.40;;;4.50;;
57605;SDS011;43430;48.204;11.556;2023-05-07T05:51:16;6.43;;;5.10;;
57605;SDS011;43430;48.204;11.556;2023-05-07T05:53:42;7.50;;;4.93;;
57605;SDS011;43430;48.204;11.556;2023-05-07T05:56:07;7.50;;;4.65;;
57605;SDS011;43430;48.204;11.556;2023-05-07T05:58:33;7.70;;;4.05;;
57605;SDS011;43430;48.204;11.556;2023-05-07T06:00:58;5.80;;;3.85;;
57605;SDS011;43430;48.204;11.556;2023-05-07T06:03:23;5.03;;;3.83;;
57605;SDS011;43430;48.204;11.556;2023-05-07T06:05:49;5.93;;;3.85;;
57605;SDS011;43430;48.204;11.556;2023-05-07T06:08:15;6.63;;;3.80;;
57605;SDS011;43430;48.204;11.556;2023-05-07T06:10:40;4.53;;;2.67;;
57605;SDS011;43430;48.204;11.556;2023-05-07T06:13:07;5.32;;;3.10;;
57605;SDS011;43430;48.204;11.556;2023-05-07T06:15:32;6.95;;;3.50;;
57605;SDS011;43430;48.204;11.556;2023-05-07T06:17:58;5.30;;;3.20;;
57605;SDS011;43430;48.204;11.556;2023-05-07T06:20:23;4.88;;;3.17;;
57605;SDS011;43430;48.204;11.556;2023-05-07T06:22:48;6.18;;;4.18;;
57605;SDS011;43430;48.204;11.556;2023-05-07T06:25:14;9.02;;;3.42;;
57605;SDS011;43430;48.204;11.556;2023-05-07T06:27:39;4.40;;;3.40;;
57605;SDS011;43430;48.204;11.556;2023-05-07T06:30:05;6.13;;;3.78;;
57605;SDS011;43430;48.204;11.556;2023-05-07T06:32:31;5.03;;;3.50;;
57605;SDS011;43430;48.204;11.556;2023-05-07T06:34:56;5.97;;;3.55;;
57605;SDS011;43430;48.204;11.556;2023-05-07T06:37:22;4.10;;;3.40;;
57605;SDS011;43430;48.204;11.556;2023-05-07T06:39:47;5.00;;;3.55;;
57605;SDS011;43430;48.204;11.556;2023-05-07T06:42:13;5.32;;;3.60;;
57605;SDS011;43430;48.204;11.556;2023-05-07T06:44:38;9.30;;;3.35;;
57605;SDS011;43430;48.204;11.556;2023-05-07T06:47:03;4.60;;;2.80;;
57605;SDS011;43430;48.204;11.556;2023-05-07T06:49:30;6.53;;;3.00;;
57605;SDS011;43430;48.204;11.556;2023-05-07T06:51:56;8.38;;;2.85;;
57605;SDS011;43430;48.204;11.556;2023-05-07T06:54:22;5.22;;;3.00;;
57605;SDS011;43430;48.204;11.556;2023-05-07T06:56:47;5.63;;;2.80;;
57605;SDS011;43430;48.204;11.556;2023-05-07T06:59:12;6.53;;;2.45;;
57605;SDS011;43430;48.204;11.556;2023-05-07T07:01:38;5.55;;;2.75;;
57605;SDS011;43430;48.204;11.556;2023-05-07T07:04:03;4.65;;;2.92;;
57605;SDS011;43430;48.204;11.556;2023-05-07T07:06:29;4.32;;;2.65;;
57605;SDS011;43430;48.204;11.556;2023-05-07T07:08:56;4.70;;;2.95;;
57605;SDS011;43430;48.204;11.556;2023-05-07T07:11:22;4.78;;;2.72;;
57605;SDS011;43430;48.204;11.556;2023-05-07T07:13:47;5.20;;;3.00;;
57605;SDS011;43430;48.204;11.556;2023-05-07T07:16:12;5.30;;;3.15;;
57605;SDS011;43430;48.204;11.556;2023-05-07T07:18:38;5.72;;;3.45;;
57605;SDS011;43430;48.204;11.556;2023-05-07T07:21:03;5.00;;;3.22;;
57605;SDS011;43430;48.204;11.556;2023-05-07T07:23:29;8.52;;;3.90;;
57605;SDS011;43430;48.204;11.556;2023-05-07T07:25:54;5.25;;;2.90;;
57605;SDS011;43430;48.204;11.556;2023-05-07T07:28:20;5.57;;;3.90;;
57605;SDS011;43430;48.204;11.556;2023-05-07T07:30:46;4.57;;;3.05;;
57605;SDS011;43430;48.204;11.556;2023-05-07T07:33:11;3.92;;;2.70;;
57605;SDS011;43430;48.204;11.556;2023-05-07T07:35:37;7.05;;;2.78;;
57605;SDS011;43430;48.204;11.556;2023-05-07T07:38:02;4.13;;;2.95;;
57605;SDS011;43430;48.204;11.556;2023-05-07T07:40:27;4.65;;;2.80;;
57605;SDS011;43430;48.204;11.556;2023-05-07T07:42:53;5.13;;;3.00;;
57605;SDS011;43430;48.204;11.556;2023-05-07T07:45:19;6.75;;;3.40;;
57605;SDS011;43430;48.204;11.556;2023-05-07T07:47:44;5.18;;;3.72;;
57605;SDS011;43430;48.204;11.556;2023-05-07T07:50:10;5.20;;;3.15;;
57605;SDS011;43430;48.204;11.556;2023-05-07T07:52:35;6.90;;;3.65;;
57605;SDS011;43430;48.204;11.556;2023-05-07T07:55:01;9.98;;;3.33;;
57605;SDS011;43430;48.204;11.556;2023-05-07T07:57:26;4.18;;;3.00;;
57605;SDS011;43430;48.204;11.556;2023-05-07T07:59:52;6.82;;;3.65;;
57605;SDS011;43430;48.204;11.556;2023-05-07T08:02:17;4.75;;;3.60;;
57605;SDS011;43430;48.204;11.556;2023-05-07T08:04:42;5.43;;;3.20;;
57605;SDS011;43430;48.204;11.556;2023-05-07T08:07:09;6.15;;;4.20;;
57605;SDS011;43430;48.204;11.556;2023-05-07T08:09:35;5.63;;;3.50;;
57605;SDS011;43430;48.204;11.556;2023-05-07T08:12:00;5.53;;;3.83;;
57605;SDS011;43430;48.204;11.556;2023-05-07T08:14:26;4.93;;;3.40;;
57605;SDS011;43430;48.204;11.556;2023-05-07T08:16:53;5.15;;;3.90;;
57605;SDS011;43430;48.204;11.556;2023-05-07T08:19:19;5.60;;;3.03;;
57605;SDS011;43430;48.204;11.556;2023-05-07T08:21:44;4.63;;;3.38;;
57605;SDS011;43430;48.204;11.556;2023-05-07T08:24:12;4.90;;;3.53;;
57605;SDS011;43430;48.204;11.556;2023-05-07T08:26:38;6.40;;;3.90;;
57605;SDS011;43430;48.204;11.556;2023-05-07T08:29:04;6.32;;;3.70;;
57605;SDS011;43430;48.204;11.556;2023-05-07T08:31:29;5.43;;;3.75;;
57605;SDS011;43430;48.204;11.556;2023-05-07T08:33:55;5.65;;;2.80;;
57605;SDS011;43430;48.204;11.556;2023-05-07T08:36:21;5.95;;;3.63;;
57605;SDS011;43430;48.204;11.556;2023-05-07T08:38:46;4.65;;;3.03;;
57605;SDS011;43430;48.204;11.556;2023-05-07T08:41:11;5.75;;;3.60;;
57605;SDS011;43430;48.204;11.556;2023-05-07T08:43:37;4.85;;;3.30;;
57605;SDS011;43430;48.204;11.556;2023-05-07T08:46:05;5.43;;;3.22;;
57605;SDS011;43430;48.204;11.556;2023-05-07T08:48:34;4.22;;;3.28;;
57605;SDS011;43430;48.204;11.556;2023-05-07T08:51:00;5.93;;;2.72;;
57605;SDS011;43430;48.204;11.556;2023-05-07T08:53:26;3.35;;;2.70;;
57605;SDS011;43430;48.204;11.556;2023-05-07T08:55:52;4.85;;;3.40;;
57605;SDS011;43430;48.204;11.556;2023-05-07T08:58:18;5.07;;;3.33;;
57605;SDS011;43430;48.204;11.556;2023-05-07T09:00:43;4.35;;;3.03;;
57605;SDS011;43430;48.204;11.556;2023-05-07T09:03:09;4.25;;;2.80;;
57605;SDS011;43430;48.204;11.556;2023-05-07T09:05:37;5.70;;;2.72;;
57605;SDS011;43430;48.204;11.556;2023-05-07T09:08:04;5.22;;;2.95;;
57605;SDS011;43430;48.204;11.556;2023-05-07T09:10:32;6.07;;;2.72;;
57605;SDS011;43430;48.204;11.556;2023-05-07T09:12:58;4.05;;;2.70;;
57605;SDS011;43430;48.204;11.556;2023-05-07T09:15:24;5.25;;;3.70;;
57605;SDS011;43430;48.204;11.556;2023-05-07T09:17:50;4.35;;;3.22;;
57605;SDS011;43430;48.204;11.556;2023-05-07T09:20:15;3.80;;;2.60;;
57605;SDS011;43430;48.204;11.556;2023-05-07T09:22:41;4.93;;;3.05;;
57605;SDS011;43430;48.204;11.556;2023-05-07T09:25:06;5.03;;;2.95;;
57605;SDS011;43430;48.204;11.556;2023-05-07T09:27:33;5.38;;;2.47;;
57605;SDS011;43430;48.204;11.556;2023-05-07T09:29:58;5.05;;;2.85;;
57605;SDS011;43430;48.204;11.556;2023-05-07T09:32:24;6.22;;;3.45;;
57605;SDS011;43430;48.204;11.556;2023-05-07T09:34:50;4.55;;;3.30;;
57605;SDS011;43430;48.204;11.556;2023-05-07T09:37:15;6.15;;;3.67;;
57605;SDS011;43430;48.204;11.556;2023-05-07T09:39:41;5.00;;;3.97;;
57605;SDS011;43430;48.204;11.556;2023-05-07T09:42:12;7.80;;;4.40;;
57605;SDS011;43430;48.204;11.556;2023-05-07T09:44:39;5.85;;;4.22;;
57605;SDS011;43430;48.204;11.556;2023-05-07T09:47:06;5.38;;;3.80;;
57605;SDS011;43430;48.204;11.556;2023-05-07T09:49:35;5.68;;;3.97;;
57605;SDS011;43430;48.204;11.556;2023-05-07T09:52:02;7.47;;;3.67;;
57605;SDS011;43430;48.204;11.556;2023-05-07T09:54:31;5.40;;;3.88;;
57605;SDS011;43430;48.204;11.556;2023-05-07T09:56:58;7.05;;;3.20;;
57605;SDS011;43430;48.204;11.556;2023-05-07T09:59:27;7.13;;;3.28;;
57605;SDS011;43430;48.204;11.556;2023-05-07T10:01:55;4.05;;;2.50;;
57605;SDS011;43430;48.204;11.556;2023-05-07T10:04:22;3.58;;;2.78;;
57605;SDS011;43430;48.204;11.556;2023-05-07T10:06:48;4.15;;;2.42;;
57605;SDS011;43430;48.204;11.556;2023-05-07T10:09:14;3.55;;;2.53;;
57605;SDS011;43430;48.204;11.556;2023-05-07T10:11:40;5.20;;;2.50;;
57605;SDS011;43430;48.204;11.556;2023-05-07T10:14:06;5.10;;;2.00;;
57605;SDS011;43430;48.204;11.556;2023-05-07T10:16:33;3.58;;;1.50;;
57605;SDS011;43430;48.204;11.556;2023-05-07T10:19:04;4.93;;;1.75;;
57605;SDS011;43430;48.204;11.556;2023-05-07T10:21:30;2.40;;;1.90;;
57605;SDS011;43430;48.204;11.556;2023-05-07T10:24:04;3.20;;;1.92;;
57605;SDS011;43430;48.204;11.556;2023-05-07T10:26:31;4.38;;;1.77;;
57605;SDS011;43430;48.204;11.556;2023-05-07T10:29:04;3.55;;;2.40;;
57605;SDS011;43430;48.204;11.556;2023-05-07T10:32:07;3.78;;;2.97;;
57605;SDS011;43430;48.204;11.556;2023-05-07T10:34:54;4.15;;;3.20;;
57605;SDS011;43430;48.204;11.556;2023-05-07T10:37:24;4.47;;;2.97;;
57605;SDS011;43430;48.204;11.556;2023-05-07T10:39:50;4.65;;;2.50;;
57605;SDS011;43430;48.204;11.556;2023-05-07T10:42:16;3.40;;;2.50;;
57605;SDS011;43430;48.204;11.556;2023-05-07T10:44:41;4.25;;;2.60;;
57605;SDS011;43430;48.204;11.556;2023-05-07T10:47:11;3.25;;;2.55;;
57605;SDS011;43430;48.204;11.556;2023-05-07T10:54:41;4.20;;;2.55;;
57605;SDS011;43430;48.204;11.556;2023-05-07T10:59:55;5.22;;;3.22;;
57605;SDS011;43430;48.204;11.556;2023-05-07T11:02:21;4.30;;;2.90;;
57605;SDS011;43430;48.204;11.556;2023-05-07T11:05:18;4.05;;;3.20;;
57605;SDS011;43430;48.204;11.556;2023-05-07T11:07:54;2.95;;;2.17;;
57605;SDS011;43430;48.204;11.556;2023-05-07T11:10:20;3.83;;;2.78;;
57605;SDS011;43430;48.204;11.556;2023-05-07T11:12:47;4.10;;;2.85;;
57605;SDS011;43430;48.204;11.556;2023-05-07T11:15:13;3.22;;;2.60;;
57605;SDS011;43430;48.204;11.556;2023-05-07T11:17:58;4.63;;;3.17;;
57605;SDS011;43430;48.204;11.556;2023-05-07T11:23:12;3.80;;;2.90;;
57605;SDS011;43430;48.204;11.556;2023-05-07T11:26:00;5.28;;;3.33;;
57605;SDS011;43430;48.204;11.556;2023-05-07T11:28:27;4.32;;;2.70;;
57605;SDS011;43430;48.204;11.556;2023-05-07T11:30:53;3.58;;;2.80;;
57605;SDS011;43430;48.204;11.556;2023-05-07T11:33:19;5.15;;;2.60;;
57605;SDS011;43430;48.204;11.556;2023-05-07T11:35:44;5.53;;;2.30;;
57605;SDS011;43430;48.204;11.556;2023-05-07T11:38:10;3.03;;;2.50;;
57605;SDS011;43430;48.204;11.556;2023-05-07T11:40:53;4.50;;;2.15;;
57605;SDS011;43430;48.204;11.556;2023-05-07T11:43:20;3.83;;;2.50;;
57605;SDS011;43430;48.204;11.556;2023-05-07T11:45:45;4.32;;;3.03;;
57605;SDS011;43430;48.204;11.556;2023-05-07T11:48:15;3.85;;;2.10;;
57605;SDS011;43430;48.204;11.556;2023-05-07T11:53:24;2.60;;;1.70;;
57605;SDS011;43430;48.204;11.556;2023-05-07T11:55:56;3.33;;;1.50;;
57605;SDS011;43430;48.204;11.556;2023-05-07T11:58:22;1.45;;;1.20;;
57605;SDS011;43430;48.204;11.556;2023-05-07T12:00:52;2.90;;;1.88;;
57605;SDS011;43430;48.204;11.556;2023-05-07T12:03:19;2.60;;;2.22;;
57605;SDS011;43430;48.204;11.556;2023-05-07T12:05:45;3.90;;;2.20;;
57605;SDS011;43430;48.204;11.556;2023-05-07T12:08:15;2.40;;;1.73;;
57605;SDS011;43430;48.204;11.556;2023-05-07T12:10:41;3.55;;;1.92;;
57605;SDS011;43430;48.204;11.556;2023-05-07T12:13:14;2.63;;;1.60;;
57605;SDS011;43430;48.204;11.556;2023-05-07T12:15:40;6.47;;;1.85;;
57605;SDS011;43430;48.204;11.556;2023-05-07T12:18:06;2.97;;;1.63;;
57605;SDS011;43430;48.204;11.556;2023-05-07T12:20:33;2.30;;;1.70;;
57605;SDS011;43430;48.204;11.556;2023-05-07T12:22:59;2.72;;;1.40;;
57605;SDS011;43430;48.204;11.556;2023-05-07T12:25:24;1.98;;;1.25;;
57605;SDS011;43430;48.204;11.556;2023-05-07T12:27:53;2.65;;;1.58;;
57605;SDS011;43430;48.204;11.556;2023-05-07T12:30:18;2.25;;;1.80;;
57605;SDS011;43430;48.204;11.556;2023-05-07T12:32:44;3.65;;;1.70;;
57605;SDS011;43430;48.204;11.556;2023-05-07T12:35:10;2.72;;;1.52;;
57605;SDS011;43430;48.204;11.556;2023-05-07T12:37:35;2.08;;;1.23;;
57605;SDS011;43430;48.204;11.556;2023-05-07T12:40:08;1.67;;;1.30;;
57605;SDS011;43430;48.204;11.556;2023-05-07T12:42:38;2.10;;;1.30;;
57605;SDS011;43430;48.204;11.556;2023-05-07T12:45:11;1.38;;;1.10;;
57605;SDS011;43430;48.204;11.556;2023-05-07T12:47:38;3.80;;;1.40;;
57605;SDS011;43430;48.204;11.556;2023-05-07T12:50:06;3.00;;;1.30;;
57605;SDS011;43430;48.204;11.556;2023-05-07T12:52:32;1.50;;;1.30;;
57605;SDS011;43430;48.204;11.556;2023-05-07T12:55:04;2.03;;;1.33;;
57605;SDS011;43430;48.204;11.556;2023-05-07T12:57:30;2.37;;;1.10;;
57605;SDS011;43430;48.204;11.556;2023-05-07T12:59:57;3.55;;;1.58;;
57605;SDS011;43430;48.204;11.556;2023-05-07T13:02:31;1.83;;;1.40;;
57605;SDS011;43430;48.204;11.556;2023-05-07T13:04:57;3.33;;;1.42;;
57605;SDS011;43430;48.204;11.556;2023-05-07T13:07:24;2.70;;;1.38;;
57605;SDS011;43430;48.204;11.556;2023-05-07T13:09:50;2.97;;;1.42;;
57605;SDS011;43430;48.204;11.556;2023-05-07T13:12:15;2.85;;;1.55;;
57605;SDS011;43430;48.204;11.556;2023-05-07T13:14:43;4.25;;;2.10;;
57605;SDS011;43430;48.204;11.556;2023-05-07T13:17:09;3.40;;;1.90;;
57605;SDS011;43430;48.204;11.556;2023-05-07T13:19:34;3.30;;;1.80;;
57605;SDS011;43430;48.204;11.556;2023-05-07T13:22:02;5.90;;;2.00;;
57605;SDS011;43430;48.204;11.556;2023-05-07T13:24:27;3.35;;;1.88;;
57605;SDS011;43430;48.204;11.556;2023-05-07T13:26:53;2.13;;;1.75;;
57605;SDS011;43430;48.204;11.556;2023-05-07T13:29:18;3.53;;;2.20;;
57605;SDS011;43430;48.204;11.556;2023-05-07T13:31:43;2.95;;;2.35;;
57605;SDS011;43430;48.204;11.556;2023-05-07T13:34:09;2.53;;;1.65;;
57605;SDS011;43430;48.204;11.556;2023-05-07T13:36:34;3.80;;;2.42;;
57605;SDS011;43430;48.204;11.556;2023-05-07T13:39:02;3.03;;;2.40;;
57605;SDS011;43430;48.204;11.556;2023-05-07T13:41:28;3.58;;;2.67;;
57605;SDS011;43430;48.204;11.556;2023-05-07T13:43:54;3.33;;;2.13;;
57605;SDS011;43430;48.204;11.556;2023-05-07T13:46:19;3.10;;;2.45;;
57605;SDS011;43430;48.204;11.556;2023-05-07T13:48:44;4.13;;;2.22;;
57605;SDS011;43430;48.204;11.556;2023-05-07T13:51:10;2.97;;;2.42;;
57605;SDS011;43430;48.204;11.556;2023-05-07T13:53:35;3.03;;;2.40;;
57605;SDS011;43430;48.204;11.556;2023-05-07T13:56:01;3.40;;;2.28;;
57605;SDS011;43430;48.204;11.556;2023-05-07T13:58:29;3.50;;;2.75;;
57605;SDS011;43430;48.204;11.556;2023-05-07T14:00:54;3.30;;;2.70;;
57605;SDS011;43430;48.204;11.556;2023-05-07T14:03:20;3.63;;;2.55;;
57605;SDS011;43430;48.204;11.556;2023-05-07T14:05:45;3.05;;;2.75;;
57605;SDS011;43430;48.204;11.556;2023-05-07T14:08:11;2.75;;;2.28;;
57605;SDS011;43430;48.204;11.556;2023-05-07T14:10:37;4.25;;;2.72;;
57605;SDS011;43430;48.204;11.556;2023-05-07T14:13:03;2.72;;;2.40;;
57605;SDS011;43430;48.204;11.556;2023-05-07T14:15:28;5.70;;;2.53;;
57605;SDS011;43430;48.204;11.556;2023-05-07T14:17:53;4.75;;;3.03;;
57605;SDS011;43430;48.204;11.556;2023-05-07T14:20:19;3.53;;;2.70;;
57605;SDS011;43430;48.204;11.556;2023-05-07T14:22:45;4.15;;;2.40;;
57605;SDS011;43430;48.204;11.556;2023-05-07T14:25:10;5.72;;;2.50;;
57605;SDS011;43430;48.204;11.556;2023-05-07T14:27:36;3.83;;;2.50;;
57605;SDS011;43430;48.204;11.556;2023-05-07T14:30:02;2.85;;;2.28;;
57605;SDS011;43430;48.204;11.556;2023-05-07T14:32:27;3.72;;;2.33;;
57605;SDS011;43430;48.204;11.556;2023-05-07T14:34:52;4.53;;;2.22;;
57605;SDS011;43430;48.204;11.556;2023-05-07T14:37:18;4.00;;;2.47;;
57605;SDS011;43430;48.204;11.556;2023-05-07T14:39:44;11.75;;;8.18;;